sensor_id;sensor_type;location;lat;lon;timestamp;temperature;humidity
28297;DHT22;62078;49.366;8.172;2023-07-13T00:00:28;24.90;44.20
28297;DHT22;62078;49.366;8.172;2023-07-13T00:02:53;24.90;44.10
28297;DHT22;62078;49.366;8.172;2023-07-13T00:05:21;24.80;44.10
28297;DHT22;62078;49.366;8.172;2023-07-13T00:07:47;24.80;44.20
28297;DHT22;62078;49.366;8.172;2023-07-13T00:10:13;24.80;44.20
28297;DHT22;62078;49.366;8.172;2023-07-13T00:12:39;24.80;44.40
28297;DHT22;62078;49.366;8.172;2023-07-13T00:15:11;24.80;44.30
28297;DHT22;62078;49.366;8.172;2023-07-13T00:17:37;24.70;44.20
28297;DHT22;62078;49.366;8.172;2023-07-13T00:20:05;24.60;44.30
28297;DHT22;62078;49.366;8.172;2023-07-13T00:22:31;24.60;44.40
28297;DHT22;62078;49.366;8.172;2023-07-13T00:24:56;24.60;44.40
28297;DHT22;62078;49.366;8.172;2023-07-13T00:27:22;24.60;44.60
28297;DHT22;62078;49.366;8.172;2023-07-13T00:29:48;24.60;44.60
28297;DHT22;62078;49.366;8.172;2023-07-13T00:32:14;24.60;44.70
28297;DHT22;62078;49.366;8.172;2023-07-13T00:34:40;24.50;44.70
28297;DHT22;62078;49.366;8.172;2023-07-13T00:37:07;24.50;44.70
28297;DHT22;62078;49.366;8.172;2023-07-13T00:39:33;24.50;44.90
28297;DHT22;62078;49.366;8.172;2023-07-13T00:42:00;24.40;44.70
28297;DHT22;62078;49.366;8.172;2023-07-13T00:44:26;24.40;44.70
28297;DHT22;62078;49.366;8.172;2023-07-13T00:46:52;24.40;44.70
28297;DHT22;62078;49.366;8.172;2023-07-13T00:49:23;24.40;44.90
28297;DHT22;62078;49.366;8.172;2023-07-13T00:51:53;24.40;44.90
28297;DHT22;62078;49.366;8.172;2023-07-13T00:54:29;24.40;44.90
28297;DHT22;62078;49.366;8.172;2023-07-13T00:56:58;24.40;44.90
28297;DHT22;62078;49.366;8.172;2023-07-13T00:59:24;24.30;44.90
28297;DHT22;62078;49.366;8.172;2023-07-13T01:01:50;24.30;45.00
28297;DHT22;62078;49.366;8.172;2023-07-13T01:04:17;24.20;45.00
28297;DHT22;62078;49.366;8.172;2023-07-13T01:06:43;24.30;45.00
28297;DHT22;62078;49.366;8.172;2023-07-13T01:09:10;24.20;45.10
28297;DHT22;62078;49.366;8.172;2023-07-13T01:11:37;24.20;45.20
28297;DHT22;62078;49.366;8.172;2023-07-13T01:14:03;24.20;45.30
28297;DHT22;62078;49.366;8.172;2023-07-13T01:16:34;24.20;45.20
28297;DHT22;62078;49.366;8.172;2023-07-13T01:19:01;24.20;45.20
28297;DHT22;62078;49.366;8.172;2023-07-13T01:21:29;24.10;45.20
28297;DHT22;62078;49.366;8.172;2023-07-13T01:23:57;24.20;45.30
28297;DHT22;62078;49.366;8.172;2023-07-13T01:26:23;24.10;45.30
28297;DHT22;62078;49.366;8.172;2023-07-13T01:28:49;24.20;45.30
28297;DHT22;62078;49.366;8.172;2023-07-13T01:31:15;24.10;45.30
28297;DHT22;62078;49.366;8.172;2023-07-13T01:33:41;24.10;45.30
28297;DHT22;62078;49.366;8.172;2023-07-13T01:36:08;24.10;45.40
28297;DHT22;62078;49.366;8.172;2023-07-13T01:38:35;24.10;45.50
28297;DHT22;62078;49.366;8.172;2023-07-13T01:41:01;24.10;45.50
28297;DHT22;62078;49.366;8.172;2023-07-13T01:43:27;24.10;46.00
28297;DHT22;62078;49.366;8.172;2023-07-13T01:45:53;24.10;45.40
28297;DHT22;62078;49.366;8.172;2023-07-13T01:48:18;24.00;45.40
28297;DHT22;62078;49.366;8.172;2023-07-13T01:50:45;23.90;45.40
28297;DHT22;62078;49.366;8.172;2023-07-13T01:53:11;23.90;45.40
28297;DHT22;62078;49.366;8.172;2023-07-13T01:55:37;24.00;45.40
28297;DHT22;62078;49.366;8.172;2023-07-13T01:58:03;23.90;45.30
28297;DHT22;62078;49.366;8.172;2023-07-13T02:00:29;23.90;45.50
28297;DHT22;62078;49.366;8.172;2023-07-13T02:02:55;23.90;45.40
28297;DHT22;62078;49.366;8.172;2023-07-13T02:05:20;23.90;45.40
28297;DHT22;62078;49.366;8.172;2023-07-13T02:07:46;23.90;45.40
28297;DHT22;62078;49.366;8.172;2023-07-13T02:10:12;23.90;45.50
28297;DHT22;62078;49.366;8.172;2023-07-13T02:12:38;23.90;45.40
28297;DHT22;62078;49.366;8.172;2023-07-13T02:15:05;23.90;45.40
28297;DHT22;62078;49.366;8.172;2023-07-13T02:17:31;23.90;45.50
28297;DHT22;62078;49.366;8.172;2023-07-13T02:19:57;23.90;45.60
28297;DHT22;62078;49.366;8.172;2023-07-13T02:22:23;23.80;45.60
28297;DHT22;62078;49.366;8.172;2023-07-13T02:24:49;23.80;45.70
28297;DHT22;62078;49.366;8.172;2023-07-13T02:27:15;23.80;45.80
28297;DHT22;62078;49.366;8.172;2023-07-13T02:29:41;23.80;45.80
28297;DHT22;62078;49.366;8.172;2023-07-13T02:32:07;23.70;46.10
28297;DHT22;62078;49.366;8.172;2023-07-13T02:34:33;23.80;46.10
28297;DHT22;62078;49.366;8.172;2023-07-13T02:36:59;23.80;46.10
28297;DHT22;62078;49.366;8.172;2023-07-13T02:39:25;23.80;46.00
28297;DHT22;62078;49.366;8.172;2023-07-13T02:41:50;23.80;45.90
28297;DHT22;62078;49.366;8.172;2023-07-13T02:44:16;23.80;45.90
28297;DHT22;62078;49.366;8.172;2023-07-13T02:46:42;23.70;46.00
28297;DHT22;62078;49.366;8.172;2023-07-13T02:49:08;23.60;45.90
28297;DHT22;62078;49.366;8.172;2023-07-13T02:51:34;23.60;46.00
28297;DHT22;62078;49.366;8.172;2023-07-13T02:54:04;23.60;45.90
28297;DHT22;62078;49.366;8.172;2023-07-13T02:56:31;23.60;46.00
28297;DHT22;62078;49.366;8.172;2023-07-13T02:58:57;23.50;46.10
28297;DHT22;62078;49.366;8.172;2023-07-13T03:01:24;23.50;46.20
28297;DHT22;62078;49.366;8.172;2023-07-13T03:03:51;23.50;46.10
28297;DHT22;62078;49.366;8.172;2023-07-13T03:06:17;23.70;46.40
28297;DHT22;62078;49.366;8.172;2023-07-13T03:08:44;23.90;45.60
28297;DHT22;62078;49.366;8.172;2023-07-13T03:11:15;23.80;45.50
28297;DHT22;62078;49.366;8.172;2023-07-13T03:13:41;23.70;45.70
28297;DHT22;62078;49.366;8.172;2023-07-13T03:16:08;23.60;45.90
28297;DHT22;62078;49.366;8.172;2023-07-13T03:18:35;23.50;46.00
28297;DHT22;62078;49.366;8.172;2023-07-13T03:21:02;23.40;46.20
28297;DHT22;62078;49.366;8.172;2023-07-13T03:23:28;23.40;46.30
28297;DHT22;62078;49.366;8.172;2023-07-13T03:26:05;23.40;46.30
28297;DHT22;62078;49.366;8.172;2023-07-13T03:28:32;23.40;46.60
28297;DHT22;62078;49.366;8.172;2023-07-13T03:31:04;23.30;46.60
28297;DHT22;62078;49.366;8.172;2023-07-13T03:33:30;23.30;46.60
28297;DHT22;62078;49.366;8.172;2023-07-13T03:35:56;23.30;46.60
28297;DHT22;62078;49.366;8.172;2023-07-13T03:38:22;23.30;46.50
28297;DHT22;62078;49.366;8.172;2023-07-13T03:40:48;23.30;46.60
28297;DHT22;62078;49.366;8.172;2023-07-13T03:43:14;23.20;46.70
28297;DHT22;62078;49.366;8.172;2023-07-13T03:45:40;23.20;46.90
28297;DHT22;62078;49.366;8.172;2023-07-13T03:48:05;23.10;46.90
28297;DHT22;62078;49.366;8.172;2023-07-13T03:50:31;23.30;47.40
28297;DHT22;62078;49.366;8.172;2023-07-13T03:53:00;23.30;46.40
28297;DHT22;62078;49.366;8.172;2023-07-13T03:55:26;22.90;47.00
28297;DHT22;62078;49.366;8.172;2023-07-13T03:57:57;22.70;47.80
28297;DHT22;62078;49.366;8.172;2023-07-13T04:00:23;22.40;48.20
28297;DHT22;62078;49.366;8.172;2023-07-13T04:02:49;22.20;48.90
28297;DHT22;62078;49.366;8.172;2023-07-13T04:05:15;22.10;49.20
28297;DHT22;62078;49.366;8.172;2023-07-13T04:07:41;22.10;49.20
28297;DHT22;62078;49.366;8.172;2023-07-13T04:10:07;22.00;48.80
28297;DHT22;62078;49.366;8.172;2023-07-13T04:12:33;21.90;49.30
28297;DHT22;62078;49.366;8.172;2023-07-13T04:14:58;21.90;49.60
28297;DHT22;62078;49.366;8.172;2023-07-13T04:17:24;21.80;49.60
28297;DHT22;62078;49.366;8.172;2023-07-13T04:19:50;21.90;49.50
28297;DHT22;62078;49.366;8.172;2023-07-13T04:22:15;21.80;49.70
28297;DHT22;62078;49.366;8.172;2023-07-13T04:24:41;21.70;49.70
28297;DHT22;62078;49.366;8.172;2023-07-13T04:27:07;21.70;49.80
28297;DHT22;62078;49.366;8.172;2023-07-13T04:29:33;21.70;49.90
28297;DHT22;62078;49.366;8.172;2023-07-13T04:31:58;21.70;50.00
28297;DHT22;62078;49.366;8.172;2023-07-13T04:34:24;21.80;50.20
28297;DHT22;62078;49.366;8.172;2023-07-13T04:36:50;21.70;50.10
28297;DHT22;62078;49.366;8.172;2023-07-13T04:39:16;21.70;50.10
28297;DHT22;62078;49.366;8.172;2023-07-13T04:41:41;21.70;50.10
28297;DHT22;62078;49.366;8.172;2023-07-13T04:44:07;21.70;50.10
28297;DHT22;62078;49.366;8.172;2023-07-13T04:46:33;21.70;50.30
28297;DHT22;62078;49.366;8.172;2023-07-13T04:48:59;21.70;50.40
28297;DHT22;62078;49.366;8.172;2023-07-13T04:51:24;21.80;50.30
28297;DHT22;62078;49.366;8.172;2023-07-13T04:53:52;21.80;50.10
28297;DHT22;62078;49.366;8.172;2023-07-13T04:56:17;21.80;50.30
28297;DHT22;62078;49.366;8.172;2023-07-13T04:58:45;21.80;50.10
28297;DHT22;62078;49.366;8.172;2023-07-13T05:01:10;22.00;50.10
28297;DHT22;62078;49.366;8.172;2023-07-13T05:03:36;22.10;49.80
28297;DHT22;62078;49.366;8.172;2023-07-13T05:06:07;22.10;49.80
28297;DHT22;62078;49.366;8.172;2023-07-13T05:08:35;22.20;49.70
28297;DHT22;62078;49.366;8.172;2023-07-13T05:11:01;22.20;49.50
28297;DHT22;62078;49.366;8.172;2023-07-13T05:13:27;22.20;49.50
28297;DHT22;62078;49.366;8.172;2023-07-13T05:16:01;22.10;49.70
28297;DHT22;62078;49.366;8.172;2023-07-13T05:18:28;22.40;49.40
28297;DHT22;62078;49.366;8.172;2023-07-13T05:21:02;22.50;49.80
28297;DHT22;62078;49.366;8.172;2023-07-13T05:23:28;22.50;49.50
28297;DHT22;62078;49.366;8.172;2023-07-13T05:25:55;22.50;49.60
28297;DHT22;62078;49.366;8.172;2023-07-13T05:28:21;22.40;50.30
28297;DHT22;62078;49.366;8.172;2023-07-13T05:30:47;22.50;50.10
28297;DHT22;62078;49.366;8.172;2023-07-13T05:33:13;22.60;49.90
28297;DHT22;62078;49.366;8.172;2023-07-13T05:35:39;22.70;49.70
28297;DHT22;62078;49.366;8.172;2023-07-13T05:38:04;22.80;49.40
28297;DHT22;62078;49.366;8.172;2023-07-13T05:40:30;22.80;48.90
28297;DHT22;62078;49.366;8.172;2023-07-13T05:42:56;22.90;48.80
28297;DHT22;62078;49.366;8.172;2023-07-13T05:45:21;22.90;48.80
28297;DHT22;62078;49.366;8.172;2023-07-13T05:47:47;22.90;48.60
28297;DHT22;62078;49.366;8.172;2023-07-13T05:50:13;22.90;48.80
28297;DHT22;62078;49.366;8.172;2023-07-13T05:52:38;22.90;48.60
28297;DHT22;62078;49.366;8.172;2023-07-13T05:55:04;22.90;48.60
28297;DHT22;62078;49.366;8.172;2023-07-13T05:57:30;23.00;48.00
28297;DHT22;62078;49.366;8.172;2023-07-13T05:59:57;23.10;48.00
28297;DHT22;62078;49.366;8.172;2023-07-13T06:02:23;23.20;47.90
28297;DHT22;62078;49.366;8.172;2023-07-13T06:04:48;23.30;47.80
28297;DHT22;62078;49.366;8.172;2023-07-13T06:07:14;23.40;47.30
28297;DHT22;62078;49.366;8.172;2023-07-13T06:09:40;23.30;46.90
28297;DHT22;62078;49.366;8.172;2023-07-13T06:12:06;23.40;47.10
28297;DHT22;62078;49.366;8.172;2023-07-13T06:14:32;23.40;47.20
28297;DHT22;62078;49.366;8.172;2023-07-13T06:16:58;23.30;47.00
28297;DHT22;62078;49.366;8.172;2023-07-13T06:19:23;23.30;47.30
28297;DHT22;62078;49.366;8.172;2023-07-13T06:21:49;23.30;47.10
28297;DHT22;62078;49.366;8.172;2023-07-13T06:24:15;23.40;47.50
28297;DHT22;62078;49.366;8.172;2023-07-13T06:26:40;23.50;47.00
28297;DHT22;62078;49.366;8.172;2023-07-13T06:29:06;23.50;46.80
28297;DHT22;62078;49.366;8.172;2023-07-13T06:31:32;23.40;47.20
28297;DHT22;62078;49.366;8.172;2023-07-13T06:33:57;23.60;47.60
28297;DHT22;62078;49.366;8.172;2023-07-13T06:36:23;23.70;47.70
28297;DHT22;62078;49.366;8.172;2023-07-13T06:38:49;23.80;47.50
28297;DHT22;62078;49.366;8.172;2023-07-13T06:41:14;23.90;47.40
28297;DHT22;62078;49.366;8.172;2023-07-13T06:43:40;24.00;47.20
28297;DHT22;62078;49.366;8.172;2023-07-13T06:46:06;24.10;47.00
28297;DHT22;62078;49.366;8.172;2023-07-13T06:48:32;24.20;46.90
28297;DHT22;62078;49.366;8.172;2023-07-13T06:50:57;24.20;46.90
28297;DHT22;62078;49.366;8.172;2023-07-13T06:53:23;24.30;46.90
28297;DHT22;62078;49.366;8.172;2023-07-13T06:55:49;24.40;46.90
28297;DHT22;62078;49.366;8.172;2023-07-13T06:58:16;24.40;46.80
28297;DHT22;62078;49.366;8.172;2023-07-13T07:00:42;24.40;46.70
28297;DHT22;62078;49.366;8.172;2023-07-13T07:03:08;24.40;46.70
28297;DHT22;62078;49.366;8.172;2023-07-13T07:05:34;24.40;46.60
28297;DHT22;62078;49.366;8.172;2023-07-13T07:08:00;24.50;46.60
28297;DHT22;62078;49.366;8.172;2023-07-13T07:10:26;24.50;46.50
28297;DHT22;62078;49.366;8.172;2023-07-13T07:12:51;24.50;46.50
28297;DHT22;62078;49.366;8.172;2023-07-13T07:15:18;24.50;46.50
28297;DHT22;62078;49.366;8.172;2023-07-13T07:17:43;24.60;46.50
28297;DHT22;62078;49.366;8.172;2023-07-13T07:20:10;24.60;46.50
28297;DHT22;62078;49.366;8.172;2023-07-13T07:22:36;24.60;46.40
28297;DHT22;62078;49.366;8.172;2023-07-13T07:25:01;24.60;46.30
28297;DHT22;62078;49.366;8.172;2023-07-13T07:27:27;24.60;46.30
28297;DHT22;62078;49.366;8.172;2023-07-13T07:29:53;24.70;46.30
28297;DHT22;62078;49.366;8.172;2023-07-13T07:32:20;24.70;46.30
28297;DHT22;62078;49.366;8.172;2023-07-13T07:34:46;24.70;46.30
28297;DHT22;62078;49.366;8.172;2023-07-13T07:37:13;24.70;46.40
28297;DHT22;62078;49.366;8.172;2023-07-13T07:39:39;24.80;46.40
28297;DHT22;62078;49.366;8.172;2023-07-13T07:42:05;24.80;46.30
28297;DHT22;62078;49.366;8.172;2023-07-13T07:44:32;24.80;46.40
28297;DHT22;62078;49.366;8.172;2023-07-13T07:46:58;24.80;46.30
28297;DHT22;62078;49.366;8.172;2023-07-13T07:49:24;24.80;46.20
28297;DHT22;62078;49.366;8.172;2023-07-13T07:51:49;24.80;46.20
28297;DHT22;62078;49.366;8.172;2023-07-13T07:54:16;24.80;46.10
28297;DHT22;62078;49.366;8.172;2023-07-13T07:56:42;24.90;46.10
28297;DHT22;62078;49.366;8.172;2023-07-13T07:59:07;24.90;46.10
28297;DHT22;62078;49.366;8.172;2023-07-13T08:01:33;24.90;46.10
28297;DHT22;62078;49.366;8.172;2023-07-13T08:03:59;24.90;46.00
28297;DHT22;62078;49.366;8.172;2023-07-13T08:06:25;24.90;45.90
28297;DHT22;62078;49.366;8.172;2023-07-13T08:08:50;24.90;45.80
28297;DHT22;62078;49.366;8.172;2023-07-13T08:11:17;24.90;45.80
28297;DHT22;62078;49.366;8.172;2023-07-13T08:13:42;25.00;45.70
28297;DHT22;62078;49.366;8.172;2023-07-13T08:16:08;25.00;45.70
28297;DHT22;62078;49.366;8.172;2023-07-13T08:18:34;25.00;45.70
28297;DHT22;62078;49.366;8.172;2023-07-13T08:21:06;25.00;45.50
28297;DHT22;62078;49.366;8.172;2023-07-13T08:23:33;25.00;45.40
28297;DHT22;62078;49.366;8.172;2023-07-13T08:25:58;25.00;45.40
28297;DHT22;62078;49.366;8.172;2023-07-13T08:28:26;25.00;45.40
28297;DHT22;62078;49.366;8.172;2023-07-13T08:30:52;25.10;45.30
28297;DHT22;62078;49.366;8.172;2023-07-13T08:33:19;25.00;45.30
28297;DHT22;62078;49.366;8.172;2023-07-13T08:35:49;25.10;45.30
28297;DHT22;62078;49.366;8.172;2023-07-13T08:38:16;25.10;45.20
28297;DHT22;62078;49.366;8.172;2023-07-13T08:40:42;25.10;45.10
28297;DHT22;62078;49.366;8.172;2023-07-13T08:43:16;25.10;45.20
28297;DHT22;62078;49.366;8.172;2023-07-13T08:45:45;25.10;45.10
28297;DHT22;62078;49.366;8.172;2023-07-13T08:48:15;25.10;45.10
28297;DHT22;62078;49.366;8.172;2023-07-13T08:53:49;25.10;45.00
28297;DHT22;62078;49.366;8.172;2023-07-13T08:56:28;25.20;45.60
28297;DHT22;62078;49.366;8.172;2023-07-13T08:59:10;25.20;45.00
28297;DHT22;62078;49.366;8.172;2023-07-13T09:04:23;25.20;44.90
28297;DHT22;62078;49.366;8.172;2023-07-13T09:14:50;25.20;44.80
28297;DHT22;62078;49.366;8.172;2023-07-13T09:17:32;25.30;44.80
28297;DHT22;62078;49.366;8.172;2023-07-13T09:20:10;25.20;44.70
28297;DHT22;62078;49.366;8.172;2023-07-13T09:22:40;25.20;44.70
28297;DHT22;62078;49.366;8.172;2023-07-13T09:27:39;25.20;44.70
28297;DHT22;62078;49.366;8.172;2023-07-13T09:32:42;25.20;44.60
28297;DHT22;62078;49.366;8.172;2023-07-13T09:35:12;25.20;44.60
28297;DHT22;62078;49.366;8.172;2023-07-13T09:37:38;25.30;44.70
28297;DHT22;62078;49.366;8.172;2023-07-13T09:40:30;25.20;44.60
28297;DHT22;62078;49.366;8.172;2023-07-13T09:42:58;25.30;44.50
28297;DHT22;62078;49.366;8.172;2023-07-13T09:45:29;25.30;44.40
28297;DHT22;62078;49.366;8.172;2023-07-13T09:48:12;25.30;44.30
28297;DHT22;62078;49.366;8.172;2023-07-13T09:50:39;25.30;44.20
28297;DHT22;62078;49.366;8.172;2023-07-13T09:53:13;25.40;44.10
28297;DHT22;62078;49.366;8.172;2023-07-13T09:55:41;25.30;44.10
28297;DHT22;62078;49.366;8.172;2023-07-13T10:00:40;25.30;44.00
28297;DHT22;62078;49.366;8.172;2023-07-13T10:03:14;25.40;44.10
28297;DHT22;62078;49.366;8.172;2023-07-13T10:05:43;25.40;44.10
28297;DHT22;62078;49.366;8.172;2023-07-13T10:08:18;25.40;44.00
28297;DHT22;62078;49.366;8.172;2023-07-13T10:10:44;25.40;43.90
28297;DHT22;62078;49.366;8.172;2023-07-13T10:13:26;25.40;43.80
28297;DHT22;62078;49.366;8.172;2023-07-13T10:15:53;25.40;43.80
28297;DHT22;62078;49.366;8.172;2023-07-13T10:18:20;25.40;43.60
28297;DHT22;62078;49.366;8.172;2023-07-13T10:20:46;25.40;43.60
28297;DHT22;62078;49.366;8.172;2023-07-13T10:23:16;25.40;43.60
28297;DHT22;62078;49.366;8.172;2023-07-13T10:25:46;25.40;43.70
28297;DHT22;62078;49.366;8.172;2023-07-13T10:28:35;25.40;43.70
28297;DHT22;62078;49.366;8.172;2023-07-13T10:31:02;25.40;43.60
28297;DHT22;62078;49.366;8.172;2023-07-13T10:33:31;25.40;43.70
28297;DHT22;62078;49.366;8.172;2023-07-13T10:36:12;25.40;43.70
28297;DHT22;62078;49.366;8.172;2023-07-13T10:38:38;25.40;43.60
28297;DHT22;62078;49.366;8.172;2023-07-13T10:41:14;25.40;43.70
28297;DHT22;62078;49.366;8.172;2023-07-13T10:43:50;25.50;43.80
28297;DHT22;62078;49.366;8.172;2023-07-13T10:46:19;25.40;43.60
28297;DHT22;62078;49.366;8.172;2023-07-13T10:48:49;25.40;43.80
28297;DHT22;62078;49.366;8.172;2023-07-13T10:51:18;25.40;43.80
28297;DHT22;62078;49.366;8.172;2023-07-13T10:53:46;25.40;43.80
28297;DHT22;62078;49.366;8.172;2023-07-13T10:56:30;25.40;43.70
28297;DHT22;62078;49.366;8.172;2023-07-13T11:01:40;25.50;43.80
28297;DHT22;62078;49.366;8.172;2023-07-13T11:04:12;25.40;43.80
28297;DHT22;62078;49.366;8.172;2023-07-13T11:06:40;25.50;43.90
28297;DHT22;62078;49.366;8.172;2023-07-13T11:09:31;25.50;44.00
28297;DHT22;62078;49.366;8.172;2023-07-13T11:12:49;25.50;43.80
28297;DHT22;62078;49.366;8.172;2023-07-13T11:20:31;25.50;43.30
28297;DHT22;62078;49.366;8.172;2023-07-13T11:25:37;25.50;43.30
28297;DHT22;62078;49.366;8.172;2023-07-13T11:33:25;25.50;43.10
28297;DHT22;62078;49.366;8.172;2023-07-13T11:36:15;25.50;43.90
28297;DHT22;62078;49.366;8.172;2023-07-13T11:38:44;25.50;43.60
28297;DHT22;62078;49.366;8.172;2023-07-13T11:41:20;25.40;43.70
28297;DHT22;62078;49.366;8.172;2023-07-13T11:43:52;25.50;43.30
28297;DHT22;62078;49.366;8.172;2023-07-13T11:46:24;25.50;43.30
28297;DHT22;62078;49.366;8.172;2023-07-13T11:48:51;25.50;43.30
28297;DHT22;62078;49.366;8.172;2023-07-13T11:51:30;25.60;43.30
28297;DHT22;62078;49.366;8.172;2023-07-13T11:53:57;25.60;43.50
28297;DHT22;62078;49.366;8.172;2023-07-13T11:56:25;25.60;43.30
28297;DHT22;62078;49.366;8.172;2023-07-13T11:58:53;25.60;43.40
28297;DHT22;62078;49.366;8.172;2023-07-13T12:01:28;25.60;43.40
28297;DHT22;62078;49.366;8.172;2023-07-13T12:04:00;25.60;43.10
28297;DHT22;62078;49.366;8.172;2023-07-13T12:06:32;25.60;43.00
28297;DHT22;62078;49.366;8.172;2023-07-13T12:09:03;25.60;43.40
28297;DHT22;62078;49.366;8.172;2023-07-13T12:11:40;25.60;42.90
28297;DHT22;62078;49.366;8.172;2023-07-13T12:14:06;25.60;42.80
28297;DHT22;62078;49.366;8.172;2023-07-13T12:16:32;25.60;43.00
28297;DHT22;62078;49.366;8.172;2023-07-13T12:19:02;25.60;42.80
28297;DHT22;62078;49.366;8.172;2023-07-13T12:21:33;25.60;42.90
28297;DHT22;62078;49.366;8.172;2023-07-13T12:24:00;25.60;43.10
28297;DHT22;62078;49.366;8.172;2023-07-13T12:26:31;25.60;42.90
28297;DHT22;62078;49.366;8.172;2023-07-13T12:29:00;25.60;43.10
28297;DHT22;62078;49.366;8.172;2023-07-13T12:34:00;25.70;43.20
28297;DHT22;62078;49.366;8.172;2023-07-13T12:36:26;25.60;43.10
28297;DHT22;62078;49.366;8.172;2023-07-13T12:38:54;25.60;43.30
28297;DHT22;62078;49.366;8.172;2023-07-13T12:41:20;25.70;43.40
28297;DHT22;62078;49.366;8.172;2023-07-13T12:43:46;25.60;43.30
28297;DHT22;62078;49.366;8.172;2023-07-13T12:46:18;25.60;43.40
28297;DHT22;62078;49.366;8.172;2023-07-13T12:48:49;25.70;43.70
28297;DHT22;62078;49.366;8.172;2023-07-13T12:51:15;25.60;43.70
28297;DHT22;62078;49.366;8.172;2023-07-13T12:53:47;25.60;43.90
28297;DHT22;62078;49.366;8.172;2023-07-13T12:56:19;25.60;43.50
28297;DHT22;62078;49.366;8.172;2023-07-13T12:58:47;25.60;43.70
28297;DHT22;62078;49.366;8.172;2023-07-13T13:01:17;25.60;43.50
28297;DHT22;62078;49.366;8.172;2023-07-13T13:03:51;25.70;43.80
28297;DHT22;62078;49.366;8.172;2023-07-13T13:08:54;25.70;43.40
28297;DHT22;62078;49.366;8.172;2023-07-13T13:11:22;25.70;43.80
28297;DHT22;62078;49.366;8.172;2023-07-13T13:13:48;25.70;43.60
28297;DHT22;62078;49.366;8.172;2023-07-13T13:18:43;25.70;43.80
28297;DHT22;62078;49.366;8.172;2023-07-13T13:21:10;25.70;44.00
28297;DHT22;62078;49.366;8.172;2023-07-13T13:23:36;25.70;44.10
28297;DHT22;62078;49.366;8.172;2023-07-13T13:26:02;25.60;44.20
28297;DHT22;62078;49.366;8.172;2023-07-13T13:28:29;25.70;44.00
28297;DHT22;62078;49.366;8.172;2023-07-13T13:30:55;25.70;44.10
28297;DHT22;62078;49.366;8.172;2023-07-13T13:33:21;25.70;43.70
28297;DHT22;62078;49.366;8.172;2023-07-13T13:35:47;25.70;44.00
28297;DHT22;62078;49.366;8.172;2023-07-13T13:38:15;25.70;44.70
28297;DHT22;62078;49.366;8.172;2023-07-13T13:40:43;25.70;43.90
28297;DHT22;62078;49.366;8.172;2023-07-13T13:45:41;25.70;44.10
28297;DHT22;62078;49.366;8.172;2023-07-13T13:48:16;25.70;43.90
28297;DHT22;62078;49.366;8.172;2023-07-13T13:50:43;25.70;43.90
28297;DHT22;62078;49.366;8.172;2023-07-13T13:53:12;25.70;44.10
28297;DHT22;62078;49.366;8.172;2023-07-13T13:55:40;25.70;44.20
28297;DHT22;62078;49.366;8.172;2023-07-13T13:58:10;25.70;44.20
28297;DHT22;62078;49.366;8.172;2023-07-13T14:00:37;25.70;44.10
28297;DHT22;62078;49.366;8.172;2023-07-13T14:03:03;25.80;44.20
28297;DHT22;62078;49.366;8.172;2023-07-13T14:05:29;25.70;44.30
28297;DHT22;62078;49.366;8.172;2023-07-13T14:07:56;25.70;44.20
28297;DHT22;62078;49.366;8.172;2023-07-13T14:10:25;25.70;43.70
28297;DHT22;62078;49.366;8.172;2023-07-13T14:12:54;25.70;44.10
28297;DHT22;62078;49.366;8.172;2023-07-13T14:15:26;25.70;44.20
28297;DHT22;62078;49.366;8.172;2023-07-13T14:17:53;25.70;44.30
28297;DHT22;62078;49.366;8.172;2023-07-13T14:20:21;25.70;43.80
28297;DHT22;62078;49.366;8.172;2023-07-13T14:22:48;25.70;44.00
28297;DHT22;62078;49.366;8.172;2023-07-13T14:25:16;25.70;44.00
28297;DHT22;62078;49.366;8.172;2023-07-13T14:27:43;25.80;44.10
28297;DHT22;62078;49.366;8.172;2023-07-13T14:30:17;25.70;44.10
28297;DHT22;62078;49.366;8.172;2023-07-13T14:32:43;25.70;44.30
28297;DHT22;62078;49.366;8.172;2023-07-13T14:35:18;25.70;43.80
28297;DHT22;62078;49.366;8.172;2023-07-13T14:37:47;25.80;44.30
28297;DHT22;62078;49.366;8.172;2023-07-13T14:42:39;25.80;44.10
28297;DHT22;62078;49.366;8.172;2023-07-13T14:45:05;25.80;44.20
28297;DHT22;62078;49.366;8.172;2023-07-13T14:47:31;25.80;44.10
28297;DHT22;62078;49.366;8.172;2023-07-13T14:49:56;25.90;44.30
28297;DHT22;62078;49.366;8.172;2023-07-13T14:52:23;25.80;44.30
28297;DHT22;62078;49.366;8.172;2023-07-13T14:54:50;25.80;44.20
28297;DHT22;62078;49.366;8.172;2023-07-13T14:57:17;25.80;43.70
28297;DHT22;62078;49.366;8.172;2023-07-13T14:59:44;25.80;43.80
28297;DHT22;62078;49.366;8.172;2023-07-13T15:02:33;25.80;44.00
28297;DHT22;62078;49.366;8.172;2023-07-13T15:04:59;25.70;44.40
28297;DHT22;62078;49.366;8.172;2023-07-13T15:07:25;25.70;43.90
28297;DHT22;62078;49.366;8.172;2023-07-13T15:09:51;25.80;44.40
28297;DHT22;62078;49.366;8.172;2023-07-13T15:12:17;25.80;44.60
28297;DHT22;62078;49.366;8.172;2023-07-13T15:14:43;25.80;43.90
28297;DHT22;62078;49.366;8.172;2023-07-13T15:17:35;25.70;43.50
28297;DHT22;62078;49.366;8.172;2023-07-13T15:20:05;25.70;43.60
28297;DHT22;62078;49.366;8.172;2023-07-13T15:22:31;25.80;42.80
28297;DHT22;62078;49.366;8.172;2023-07-13T15:24:57;25.80;42.20
28297;DHT22;62078;49.366;8.172;2023-07-13T15:27:23;25.90;42.60
28297;DHT22;62078;49.366;8.172;2023-07-13T15:29:48;25.90;42.50
28297;DHT22;62078;49.366;8.172;2023-07-13T15:32:14;25.90;42.40
28297;DHT22;62078;49.366;8.172;2023-07-13T15:34:40;25.90;42.40
28297;DHT22;62078;49.366;8.172;2023-07-13T15:37:14;25.90;42.20
28297;DHT22;62078;49.366;8.172;2023-07-13T15:39:41;26.00;42.20
28297;DHT22;62078;49.366;8.172;2023-07-13T15:42:21;25.90;42.10
28297;DHT22;62078;49.366;8.172;2023-07-13T15:44:47;26.00;42.20
28297;DHT22;62078;49.366;8.172;2023-07-13T15:47:14;26.00;42.00
28297;DHT22;62078;49.366;8.172;2023-07-13T15:49:41;26.00;42.10
28297;DHT22;62078;49.366;8.172;2023-07-13T15:52:22;26.00;42.40
28297;DHT22;62078;49.366;8.172;2023-07-13T15:54:49;26.00;41.70
28297;DHT22;62078;49.366;8.172;2023-07-13T15:57:14;26.00;41.80
28297;DHT22;62078;49.366;8.172;2023-07-13T15:59:41;25.90;42.20
28297;DHT22;62078;49.366;8.172;2023-07-13T16:02:19;25.90;41.70
28297;DHT22;62078;49.366;8.172;2023-07-13T16:04:46;26.00;41.80
28297;DHT22;62078;49.366;8.172;2023-07-13T16:07:13;25.90;41.20
28297;DHT22;62078;49.366;8.172;2023-07-13T16:09:42;25.90;40.60
28297;DHT22;62078;49.366;8.172;2023-07-13T16:12:13;25.90;40.60
28297;DHT22;62078;49.366;8.172;2023-07-13T16:14:40;26.00;40.70
28297;DHT22;62078;49.366;8.172;2023-07-13T16:17:13;25.90;40.20
28297;DHT22;62078;49.366;8.172;2023-07-13T16:19:40;25.90;39.70
28297;DHT22;62078;49.366;8.172;2023-07-13T16:22:14;25.90;40.40
28297;DHT22;62078;49.366;8.172;2023-07-13T16:24:40;26.00;40.70